sensor_id;sensor_type;location;lat;lon;timestamp;P1;durP1;ratioP1;P2;durP2;ratioP2
12474;SDS011;6302;42.624;23.334;2023-02-15T00:00:53;35.20;;;20.93;;
12474;SDS011;6302;42.624;23.334;2023-02-15T00:03:21;41.80;;;23.63;;
12474;SDS011;6302;42.624;23.334;2023-02-15T00:05:48;33.40;;;19.80;;
12474;SDS011;6302;42.624;23.334;2023-02-15T00:08:15;31.33;;;18.63;;
12474;SDS011;6302;42.624;23.334;2023-02-15T00:10:42;31.33;;;18.67;;
12474;SDS011;6302;42.624;23.334;2023-02-15T00:13:09;32.00;;;19.40;;
12474;SDS011;6302;42.624;23.334;2023-02-15T00:15:35;29.67;;;19.60;;
12474;SDS011;6302;42.624;23.334;2023-02-15T00:18:02;30.33;;;19.27;;
12474;SDS011;6302;42.624;23.334;2023-02-15T00:20:30;30.43;;;17.93;;
12474;SDS011;6302;42.624;23.334;2023-02-15T00:22:58;29.47;;;16.90;;
12474;SDS011;6302;42.624;23.334;2023-02-15T00:25:25;23.73;;;14.23;;
12474;SDS011;6302;42.624;23.334;2023-02-15T00:27:52;29.73;;;18.10;;
12474;SDS011;6302;42.624;23.334;2023-02-15T00:30:18;27.23;;;17.80;;
12474;SDS011;6302;42.624;23.334;2023-02-15T00:32:46;28.80;;;18.67;;
12474;SDS011;6302;42.624;23.334;2023-02-15T00:35:13;28.50;;;18.23;;
12474;SDS011;6302;42.624;23.334;2023-02-15T00:37:42;30.00;;;18.93;;
12474;SDS011;6302;42.624;23.334;2023-02-15T00:40:09;28.70;;;17.90;;
12474;SDS011;6302;42.624;23.334;2023-02-15T00:42:36;27.90;;;18.80;;
12474;SDS011;6302;42.624;23.334;2023-02-15T00:45:03;27.30;;;18.17;;
12474;SDS011;6302;42.624;23.334;2023-02-15T00:47:30;30.60;;;18.80;;
12474;SDS011;6302;42.624;23.334;2023-02-15T00:49:57;26.63;;;17.63;;
12474;SDS011;6302;42.624;23.334;2023-02-15T00:52:23;31.43;;;18.40;;
12474;SDS011;6302;42.624;23.334;2023-02-15T00:54:51;26.63;;;16.67;;
12474;SDS011;6302;42.624;23.334;2023-02-15T00:57:18;26.97;;;18.03;;
12474;SDS011;6302;42.624;23.334;2023-02-15T00:59:45;20.90;;;12.97;;
12474;SDS011;6302;42.624;23.334;2023-02-15T01:02:12;27.33;;;17.33;;
12474;SDS011;6302;42.624;23.334;2023-02-15T01:04:38;30.80;;;18.63;;
12474;SDS011;6302;42.624;23.334;2023-02-15T01:07:05;26.60;;;17.23;;
12474;SDS011;6302;42.624;23.334;2023-02-15T01:09:32;30.43;;;19.67;;
12474;SDS011;6302;42.624;23.334;2023-02-15T01:12:00;26.17;;;18.10;;
12474;SDS011;6302;42.624;23.334;2023-02-15T01:14:27;26.53;;;16.37;;
12474;SDS011;6302;42.624;23.334;2023-02-15T01:16:54;30.87;;;19.17;;
12474;SDS011;6302;42.624;23.334;2023-02-15T01:19:20;28.63;;;18.83;;
12474;SDS011;6302;42.624;23.334;2023-02-15T01:21:50;29.47;;;17.47;;
12474;SDS011;6302;42.624;23.334;2023-02-15T01:24:17;30.93;;;19.00;;
12474;SDS011;6302;42.624;23.334;2023-02-15T01:26:43;28.60;;;18.93;;
12474;SDS011;6302;42.624;23.334;2023-02-15T01:29:11;25.87;;;16.63;;
12474;SDS011;6302;42.624;23.334;2023-02-15T01:31:38;29.63;;;18.73;;
12474;SDS011;6302;42.624;23.334;2023-02-15T01:34:05;32.10;;;18.17;;
12474;SDS011;6302;42.624;23.334;2023-02-15T01:36:33;22.53;;;15.73;;
12474;SDS011;6302;42.624;23.334;2023-02-15T01:39:00;27.07;;;18.23;;
12474;SDS011;6302;42.624;23.334;2023-02-15T01:41:27;28.83;;;18.40;;
12474;SDS011;6302;42.624;23.334;2023-02-15T01:43:55;25.93;;;17.93;;
12474;SDS011;6302;42.624;23.334;2023-02-15T01:46:26;32.37;;;18.37;;
12474;SDS011;6302;42.624;23.334;2023-02-15T01:48:59;31.47;;;18.63;;
12474;SDS011;6302;42.624;23.334;2023-02-15T01:51:30;29.23;;;17.77;;
12474;SDS011;6302;42.624;23.334;2023-02-15T01:54:01;28.33;;;18.27;;
12474;SDS011;6302;42.624;23.334;2023-02-15T01:56:33;27.83;;;18.03;;
12474;SDS011;6302;42.624;23.334;2023-02-15T01:59:03;25.97;;;16.80;;
12474;SDS011;6302;42.624;23.334;2023-02-15T02:01:34;26.07;;;17.27;;
12474;SDS011;6302;42.624;23.334;2023-02-15T02:04:02;29.90;;;18.43;;
12474;SDS011;6302;42.624;23.334;2023-02-15T02:06:35;26.67;;;16.07;;
12474;SDS011;6302;42.624;23.334;2023-02-15T02:09:04;25.00;;;16.07;;
12474;SDS011;6302;42.624;23.334;2023-02-15T02:11:31;31.47;;;18.23;;
12474;SDS011;6302;42.624;23.334;2023-02-15T02:13:59;30.30;;;17.90;;
12474;SDS011;6302;42.624;23.334;2023-02-15T02:16:27;28.87;;;17.80;;
12474;SDS011;6302;42.624;23.334;2023-02-15T02:22:28;29.23;;;16.90;;
12474;SDS011;6302;42.624;23.334;2023-02-15T02:25:24;26.00;;;17.10;;
12474;SDS011;6302;42.624;23.334;2023-02-15T02:28:14;29.40;;;15.87;;
12474;SDS011;6302;42.624;23.334;2023-02-15T02:31:11;24.60;;;15.37;;
12474;SDS011;6302;42.624;23.334;2023-02-15T02:34:02;23.27;;;16.33;;
12474;SDS011;6302;42.624;23.334;2023-02-15T02:36:37;25.00;;;16.10;;
12474;SDS011;6302;42.624;23.334;2023-02-15T02:39:19;23.53;;;16.07;;
12474;SDS011;6302;42.624;23.334;2023-02-15T02:41:55;21.13;;;12.83;;
12474;SDS011;6302;42.624;23.334;2023-02-15T02:44:29;25.23;;;17.17;;
12474;SDS011;6302;42.624;23.334;2023-02-15T02:47:02;27.40;;;15.37;;
12474;SDS011;6302;42.624;23.334;2023-02-15T02:49:38;25.97;;;17.43;;
12474;SDS011;6302;42.624;23.334;2023-02-15T02:52:31;24.00;;;15.53;;
12474;SDS011;6302;42.624;23.334;2023-02-15T02:55:12;23.27;;;15.67;;
12474;SDS011;6302;42.624;23.334;2023-02-15T02:57:43;24.30;;;15.43;;
12474;SDS011;6302;42.624;23.334;2023-02-15T03:00:17;27.73;;;16.50;;
12474;SDS011;6302;42.624;23.334;2023-02-15T03:02:46;25.53;;;16.03;;
12474;SDS011;6302;42.624;23.334;2023-02-15T03:05:18;23.73;;;15.70;;
12474;SDS011;6302;42.624;23.334;2023-02-15T03:07:49;24.33;;;16.23;;
12474;SDS011;6302;42.624;23.334;2023-02-15T03:10:18;21.17;;;13.37;;
12474;SDS011;6302;42.624;23.334;2023-02-15T03:12:48;24.73;;;15.93;;
12474;SDS011;6302;42.624;23.334;2023-02-15T03:15:17;26.77;;;16.40;;
12474;SDS011;6302;42.624;23.334;2023-02-15T03:17:46;24.47;;;15.93;;
12474;SDS011;6302;42.624;23.334;2023-02-15T03:20:20;24.07;;;16.67;;
12474;SDS011;6302;42.624;23.334;2023-02-15T03:22:53;25.27;;;16.03;;
12474;SDS011;6302;42.624;23.334;2023-02-15T03:25:25;27.40;;;16.80;;
12474;SDS011;6302;42.624;23.334;2023-02-15T03:27:58;21.33;;;16.03;;
12474;SDS011;6302;42.624;23.334;2023-02-15T03:30:28;22.13;;;15.27;;
12474;SDS011;6302;42.624;23.334;2023-02-15T03:32:58;24.20;;;16.40;;
12474;SDS011;6302;42.624;23.334;2023-02-15T03:35:30;23.53;;;15.13;;
12474;SDS011;6302;42.624;23.334;2023-02-15T03:38:02;23.23;;;13.97;;
12474;SDS011;6302;42.624;23.334;2023-02-15T03:40:33;22.97;;;14.67;;
12474;SDS011;6302;42.624;23.334;2023-02-15T03:43:21;22.53;;;15.03;;
12474;SDS011;6302;42.624;23.334;2023-02-15T03:45:56;22.13;;;15.27;;
12474;SDS011;6302;42.624;23.334;2023-02-15T03:48:29;22.60;;;14.53;;
12474;SDS011;6302;42.624;23.334;2023-02-15T03:51:00;24.40;;;15.60;;
12474;SDS011;6302;42.624;23.334;2023-02-15T03:53:48;22.77;;;15.43;;
12474;SDS011;6302;42.624;23.334;2023-02-15T03:56:16;21.53;;;14.40;;
12474;SDS011;6302;42.624;23.334;2023-02-15T03:58:43;23.00;;;14.93;;
12474;SDS011;6302;42.624;23.334;2023-02-15T04:01:27;25.37;;;14.93;;
12474;SDS011;6302;42.624;23.334;2023-02-15T04:04:23;22.43;;;15.03;;
12474;SDS011;6302;42.624;23.334;2023-02-15T04:06:56;26.10;;;15.63;;
12474;SDS011;6302;42.624;23.334;2023-02-15T04:09:23;24.27;;;15.77;;
12474;SDS011;6302;42.624;23.334;2023-02-15T04:12:07;24.07;;;15.93;;
12474;SDS011;6302;42.624;23.334;2023-02-15T04:14:34;24.23;;;15.27;;
12474;SDS011;6302;42.624;23.334;2023-02-15T04:17:18;22.07;;;15.83;;
12474;SDS011;6302;42.624;23.334;2023-02-15T04:19:45;24.57;;;15.43;;
12474;SDS011;6302;42.624;23.334;2023-02-15T04:22:31;24.03;;;16.07;;
12474;SDS011;6302;42.624;23.334;2023-02-15T04:25:16;22.70;;;15.57;;
12474;SDS011;6302;42.624;23.334;2023-02-15T04:27:43;24.83;;;16.73;;
12474;SDS011;6302;42.624;23.334;2023-02-15T04:30:12;27.40;;;15.80;;
12474;SDS011;6302;42.624;23.334;2023-02-15T04:32:40;26.00;;;16.60;;
12474;SDS011;6302;42.624;23.334;2023-02-15T04:35:07;24.50;;;16.17;;
12474;SDS011;6302;42.624;23.334;2023-02-15T04:37:36;26.27;;;16.63;;
12474;SDS011;6302;42.624;23.334;2023-02-15T04:40:05;23.40;;;17.27;;
12474;SDS011;6302;42.624;23.334;2023-02-15T04:42:33;23.73;;;16.73;;
12474;SDS011;6302;42.624;23.334;2023-02-15T04:45:00;26.93;;;16.93;;
12474;SDS011;6302;42.624;23.334;2023-02-15T04:47:27;26.83;;;17.43;;
12474;SDS011;6302;42.624;23.334;2023-02-15T04:49:54;27.70;;;16.93;;
12474;SDS011;6302;42.624;23.334;2023-02-15T04:52:20;26.07;;;16.33;;
12474;SDS011;6302;42.624;23.334;2023-02-15T04:54:48;22.90;;;15.33;;
12474;SDS011;6302;42.624;23.334;2023-02-15T04:57:15;21.53;;;14.47;;
12474;SDS011;6302;42.624;23.334;2023-02-15T04:59:42;22.70;;;15.40;;
12474;SDS011;6302;42.624;23.334;2023-02-15T05:02:09;22.90;;;16.63;;
12474;SDS011;6302;42.624;23.334;2023-02-15T05:04:35;23.63;;;15.27;;
12474;SDS011;6302;42.624;23.334;2023-02-15T05:07:02;22.83;;;16.23;;
12474;SDS011;6302;42.624;23.334;2023-02-15T05:09:29;23.23;;;15.50;;
12474;SDS011;6302;42.624;23.334;2023-02-15T05:11:57;26.37;;;15.17;;
12474;SDS011;6302;42.624;23.334;2023-02-15T05:14:24;22.13;;;14.50;;
12474;SDS011;6302;42.624;23.334;2023-02-15T05:16:51;23.90;;;16.40;;
12474;SDS011;6302;42.624;23.334;2023-02-15T05:19:18;24.27;;;15.30;;
12474;SDS011;6302;42.624;23.334;2023-02-15T05:21:45;23.83;;;15.23;;
12474;SDS011;6302;42.624;23.334;2023-02-15T05:24:12;25.40;;;15.57;;
12474;SDS011;6302;42.624;23.334;2023-02-15T05:26:57;24.57;;;15.87;;
12474;SDS011;6302;42.624;23.334;2023-02-15T05:29:42;23.07;;;15.57;;
12474;SDS011;6302;42.624;23.334;2023-02-15T05:32:08;23.80;;;14.70;;
12474;SDS011;6302;42.624;23.334;2023-02-15T05:34:35;27.57;;;16.30;;
12474;SDS011;6302;42.624;23.334;2023-02-15T05:37:02;23.37;;;16.23;;
12474;SDS011;6302;42.624;23.334;2023-02-15T05:39:29;22.87;;;14.90;;
12474;SDS011;6302;42.624;23.334;2023-02-15T05:41:59;25.50;;;14.87;;
12474;SDS011;6302;42.624;23.334;2023-02-15T05:44:26;25.57;;;17.17;;
12474;SDS011;6302;42.624;23.334;2023-02-15T05:46:53;21.63;;;14.87;;
12474;SDS011;6302;42.624;23.334;2023-02-15T05:49:20;24.07;;;15.80;;
12474;SDS011;6302;42.624;23.334;2023-02-15T05:51:46;23.83;;;16.17;;
12474;SDS011;6302;42.624;23.334;2023-02-15T05:54:13;23.77;;;15.90;;
12474;SDS011;6302;42.624;23.334;2023-02-15T05:56:40;30.87;;;16.80;;
12474;SDS011;6302;42.624;23.334;2023-02-15T05:59:08;23.20;;;14.20;;
12474;SDS011;6302;42.624;23.334;2023-02-15T06:01:35;27.00;;;16.40;;
12474;SDS011;6302;42.624;23.334;2023-02-15T06:04:02;22.57;;;15.47;;
12474;SDS011;6302;42.624;23.334;2023-02-15T06:06:29;26.77;;;16.33;;
12474;SDS011;6302;42.624;23.334;2023-02-15T06:08:55;22.20;;;14.83;;
12474;SDS011;6302;42.624;23.334;2023-02-15T06:11:22;23.13;;;15.83;;
12474;SDS011;6302;42.624;23.334;2023-02-15T06:13:49;26.80;;;16.43;;
12474;SDS011;6302;42.624;23.334;2023-02-15T06:16:17;22.83;;;14.90;;
12474;SDS011;6302;42.624;23.334;2023-02-15T06:18:46;23.63;;;14.70;;
12474;SDS011;6302;42.624;23.334;2023-02-15T06:21:13;19.13;;;14.20;;
12474;SDS011;6302;42.624;23.334;2023-02-15T06:23:40;20.90;;;13.07;;
12474;SDS011;6302;42.624;23.334;2023-02-15T06:26:06;21.87;;;13.87;;
12474;SDS011;6302;42.624;23.334;2023-02-15T06:28:33;24.80;;;15.70;;
12474;SDS011;6302;42.624;23.334;2023-02-15T06:31:00;21.37;;;14.43;;
12474;SDS011;6302;42.624;23.334;2023-02-15T06:33:31;23.30;;;13.93;;
12474;SDS011;6302;42.624;23.334;2023-02-15T06:35:58;21.23;;;14.30;;
12474;SDS011;6302;42.624;23.334;2023-02-15T06:38:25;19.87;;;13.27;;
12474;SDS011;6302;42.624;23.334;2023-02-15T06:40:52;20.17;;;13.83;;
12474;SDS011;6302;42.624;23.334;2023-02-15T06:43:19;18.43;;;13.03;;
12474;SDS011;6302;42.624;23.334;2023-02-15T06:45:46;18.90;;;11.63;;
12474;SDS011;6302;42.624;23.334;2023-02-15T06:48:12;23.10;;;14.80;;
12474;SDS011;6302;42.624;23.334;2023-02-15T06:50:41;21.07;;;13.00;;
12474;SDS011;6302;42.624;23.334;2023-02-15T06:53:07;21.23;;;13.93;;
12474;SDS011;6302;42.624;23.334;2023-02-15T06:55:34;20.20;;;13.87;;
12474;SDS011;6302;42.624;23.334;2023-02-15T06:58:03;17.43;;;12.47;;
12474;SDS011;6302;42.624;23.334;2023-02-15T07:00:30;22.80;;;13.23;;
12474;SDS011;6302;42.624;23.334;2023-02-15T07:02:57;24.77;;;15.10;;
12474;SDS011;6302;42.624;23.334;2023-02-15T07:05:25;18.27;;;12.77;;
12474;SDS011;6302;42.624;23.334;2023-02-15T07:07:57;18.80;;;13.17;;
12474;SDS011;6302;42.624;23.334;2023-02-15T07:10:24;19.53;;;12.47;;
12474;SDS011;6302;42.624;23.334;2023-02-15T07:12:51;19.80;;;13.27;;
12474;SDS011;6302;42.624;23.334;2023-02-15T07:15:17;17.10;;;12.60;;
12474;SDS011;6302;42.624;23.334;2023-02-15T07:17:45;17.03;;;12.33;;
12474;SDS011;6302;42.624;23.334;2023-02-15T07:20:13;16.33;;;11.60;;
12474;SDS011;6302;42.624;23.334;2023-02-15T07:22:42;15.50;;;10.00;;
12474;SDS011;6302;42.624;23.334;2023-02-15T07:25:10;16.67;;;11.80;;
12474;SDS011;6302;42.624;23.334;2023-02-15T07:27:38;19.47;;;12.90;;
12474;SDS011;6302;42.624;23.334;2023-02-15T07:30:06;15.10;;;11.63;;
12474;SDS011;6302;42.624;23.334;2023-02-15T07:32:34;14.57;;;10.53;;
12474;SDS011;6302;42.624;23.334;2023-02-15T07:35:01;16.73;;;10.97;;
12474;SDS011;6302;42.624;23.334;2023-02-15T07:37:28;13.87;;;10.03;;
12474;SDS011;6302;42.624;23.334;2023-02-15T07:39:57;20.03;;;11.77;;
12474;SDS011;6302;42.624;23.334;2023-02-15T07:42:25;15.33;;;11.30;;
12474;SDS011;6302;42.624;23.334;2023-02-15T07:44:52;16.27;;;11.33;;
12474;SDS011;6302;42.624;23.334;2023-02-15T07:47:19;17.97;;;11.33;;
12474;SDS011;6302;42.624;23.334;2023-02-15T07:49:46;16.70;;;11.30;;
12474;SDS011;6302;42.624;23.334;2023-02-15T07:52:14;16.60;;;11.77;;
12474;SDS011;6302;42.624;23.334;2023-02-15T07:54:42;13.60;;;11.30;;
12474;SDS011;6302;42.624;23.334;2023-02-15T07:57:09;16.37;;;12.20;;
12474;SDS011;6302;42.624;23.334;2023-02-15T07:59:37;18.13;;;11.10;;
12474;SDS011;6302;42.624;23.334;2023-02-15T08:02:05;13.93;;;10.80;;
12474;SDS011;6302;42.624;23.334;2023-02-15T08:04:34;14.83;;;9.60;;
12474;SDS011;6302;42.624;23.334;2023-02-15T08:07:01;13.97;;;10.70;;
12474;SDS011;6302;42.624;23.334;2023-02-15T08:09:29;14.13;;;10.90;;
12474;SDS011;6302;42.624;23.334;2023-02-15T08:11:56;15.70;;;11.63;;
12474;SDS011;6302;42.624;23.334;2023-02-15T08:14:22;18.00;;;11.47;;
12474;SDS011;6302;42.624;23.334;2023-02-15T08:16:51;16.50;;;11.43;;
12474;SDS011;6302;42.624;23.334;2023-02-15T08:19:21;17.43;;;12.10;;
12474;SDS011;6302;42.624;23.334;2023-02-15T08:21:50;17.43;;;12.70;;
12474;SDS011;6302;42.624;23.334;2023-02-15T08:24:19;16.87;;;11.87;;
12474;SDS011;6302;42.624;23.334;2023-02-15T08:26:48;16.90;;;11.83;;
12474;SDS011;6302;42.624;23.334;2023-02-15T08:29:16;15.70;;;10.87;;
12474;SDS011;6302;42.624;23.334;2023-02-15T08:31:44;17.27;;;11.70;;
12474;SDS011;6302;42.624;23.334;2023-02-15T08:34:14;15.27;;;11.60;;
12474;SDS011;6302;42.624;23.334;2023-02-15T08:36:42;19.83;;;11.63;;
12474;SDS011;6302;42.624;23.334;2023-02-15T08:39:10;20.87;;;12.70;;
12474;SDS011;6302;42.624;23.334;2023-02-15T08:41:39;16.97;;;12.50;;
12474;SDS011;6302;42.624;23.334;2023-02-15T08:44:08;18.53;;;11.50;;
12474;SDS011;6302;42.624;23.334;2023-02-15T08:46:36;16.13;;;10.80;;
12474;SDS011;6302;42.624;23.334;2023-02-15T08:49:04;18.17;;;11.70;;
12474;SDS011;6302;42.624;23.334;2023-02-15T08:51:33;13.70;;;10.70;;
12474;SDS011;6302;42.624;23.334;2023-02-15T08:54:02;13.13;;;10.17;;
12474;SDS011;6302;42.624;23.334;2023-02-15T08:56:32;12.73;;;9.83;;
12474;SDS011;6302;42.624;23.334;2023-02-15T08:59:00;18.47;;;11.30;;
12474;SDS011;6302;42.624;23.334;2023-02-15T09:01:28;15.20;;;10.37;;
12474;SDS011;6302;42.624;23.334;2023-02-15T09:03:56;15.27;;;11.33;;
12474;SDS011;6302;42.624;23.334;2023-02-15T09:06:24;15.90;;;11.70;;
12474;SDS011;6302;42.624;23.334;2023-02-15T09:08:53;15.77;;;11.30;;
12474;SDS011;6302;42.624;23.334;2023-02-15T09:11:21;14.27;;;10.80;;
12474;SDS011;6302;42.624;23.334;2023-02-15T09:13:49;17.37;;;12.13;;
12474;SDS011;6302;42.624;23.334;2023-02-15T09:16:20;15.53;;;11.17;;
12474;SDS011;6302;42.624;23.334;2023-02-15T09:18:48;16.97;;;11.60;;
12474;SDS011;6302;42.624;23.334;2023-02-15T09:21:16;17.10;;;12.63;;
12474;SDS011;6302;42.624;23.334;2023-02-15T09:23:45;18.60;;;12.97;;
12474;SDS011;6302;42.624;23.334;2023-02-15T09:26:15;20.67;;;14.60;;
12474;SDS011;6302;42.624;23.334;2023-02-15T09:28:44;16.30;;;11.87;;
12474;SDS011;6302;42.624;23.334;2023-02-15T09:31:12;18.37;;;12.20;;
12474;SDS011;6302;42.624;23.334;2023-02-15T09:33:41;23.93;;;13.67;;
12474;SDS011;6302;42.624;23.334;2023-02-15T09:36:14;19.63;;;14.40;;
12474;SDS011;6302;42.624;23.334;2023-02-15T09:38:42;19.10;;;13.33;;
12474;SDS011;6302;42.624;23.334;2023-02-15T09:41:16;20.70;;;14.57;;
12474;SDS011;6302;42.624;23.334;2023-02-15T09:43:57;20.77;;;14.03;;
12474;SDS011;6302;42.624;23.334;2023-02-15T09:46:34;23.80;;;15.30;;
12474;SDS011;6302;42.624;23.334;2023-02-15T09:49:24;19.10;;;13.47;;
12474;SDS011;6302;42.624;23.334;2023-02-15T09:52:02;18.77;;;13.33;;
12474;SDS011;6302;42.624;23.334;2023-02-15T09:54:50;18.77;;;13.30;;
12474;SDS011;6302;42.624;23.334;2023-02-15T09:57:27;14.80;;;10.67;;
12474;SDS011;6302;42.624;23.334;2023-02-15T10:00:04;15.97;;;12.30;;
12474;SDS011;6302;42.624;23.334;2023-02-15T10:02:44;16.13;;;12.30;;
12474;SDS011;6302;42.624;23.334;2023-02-15T10:05:25;17.47;;;12.20;;
12474;SDS011;6302;42.624;23.334;2023-02-15T10:08:09;15.23;;;12.23;;
12474;SDS011;6302;42.624;23.334;2023-02-15T10:10:47;16.80;;;12.37;;
12474;SDS011;6302;42.624;23.334;2023-02-15T10:13:46;18.33;;;13.13;;
12474;SDS011;6302;42.624;23.334;2023-02-15T10:16:25;16.70;;;13.07;;
12474;SDS011;6302;42.624;23.334;2023-02-15T10:19:02;20.27;;;13.57;;
12474;SDS011;6302;42.624;23.334;2023-02-15T10:21:41;19.37;;;13.00;;
12474;SDS011;6302;42.624;23.334;2023-02-15T10:27:11;17.47;;;12.47;;
12474;SDS011;6302;42.624;23.334;2023-02-15T10:29:42;15.43;;;12.83;;
12474;SDS011;6302;42.624;23.334;2023-02-15T10:32:21;18.57;;;12.57;;
12474;SDS011;6302;42.624;23.334;2023-02-15T10:34:52;18.77;;;12.60;;
12474;SDS011;6302;42.624;23.334;2023-02-15T10:37:33;19.33;;;13.57;;
12474;SDS011;6302;42.624;23.334;2023-02-15T10:40:13;19.63;;;14.00;;
12474;SDS011;6302;42.624;23.334;2023-02-15T10:42:50;17.00;;;12.67;;
12474;SDS011;6302;42.624;23.334;2023-02-15T10:45:36;17.23;;;11.90;;
12474;SDS011;6302;42.624;23.334;2023-02-15T10:48:22;18.60;;;12.93;;
12474;SDS011;6302;42.624;23.334;2023-02-15T10:51:02;19.90;;;14.13;;
12474;SDS011;6302;42.624;23.334;2023-02-15T10:53:34;18.53;;;13.20;;
12474;SDS011;6302;42.624;23.334;2023-02-15T10:56:14;23.37;;;15.40;;
12474;SDS011;6302;42.624;23.334;2023-02-15T10:58:59;22.10;;;15.70;;
12474;SDS011;6302;42.624;23.334;2023-02-15T11:01:46;22.97;;;14.73;;
12474;SDS011;6302;42.624;23.334;2023-02-15T11:07:08;22.73;;;16.20;;
12474;SDS011;6302;42.624;23.334;2023-02-15T11:09:43;19.83;;;14.30;;
12474;SDS011;6302;42.624;23.334;2023-02-15T11:12:13;24.47;;;15.90;;
12474;SDS011;6302;42.624;23.334;2023-02-15T11:14:45;23.27;;;16.33;;
12474;SDS011;6302;42.624;23.334;2023-02-15T11:17:21;22.60;;;16.20;;
12474;SDS011;6302;42.624;23.334;2023-02-15T11:19:55;24.00;;;16.40;;
12474;SDS011;6302;42.624;23.334;2023-02-15T11:22:28;24.67;;;16.27;;
12474;SDS011;6302;42.624;23.334;2023-02-15T11:24:59;21.70;;;14.60;;
12474;SDS011;6302;42.624;23.334;2023-02-15T11:27:28;21.43;;;15.07;;
12474;SDS011;6302;42.624;23.334;2023-02-15T11:29:58;21.87;;;15.27;;
12474;SDS011;6302;42.624;23.334;2023-02-15T11:32:30;21.27;;;15.33;;
12474;SDS011;6302;42.624;23.334;2023-02-15T11:35:00;23.90;;;16.20;;
12474;SDS011;6302;42.624;23.334;2023-02-15T11:37:32;21.93;;;16.00;;
12474;SDS011;6302;42.624;23.334;2023-02-15T11:40:03;24.83;;;16.53;;
12474;SDS011;6302;42.624;23.334;2023-02-15T11:42:41;19.47;;;14.53;;
12474;SDS011;6302;42.624;23.334;2023-02-15T11:45:16;22.33;;;16.30;;
12474;SDS011;6302;42.624;23.334;2023-02-15T11:47:51;21.70;;;15.93;;
12474;SDS011;6302;42.624;23.334;2023-02-15T11:50:19;22.23;;;16.57;;
12474;SDS011;6302;42.624;23.334;2023-02-15T11:52:49;20.90;;;16.03;;
12474;SDS011;6302;42.624;23.334;2023-02-15T11:55:17;22.93;;;15.80;;
12474;SDS011;6302;42.624;23.334;2023-02-15T11:57:48;22.20;;;15.00;;
12474;SDS011;6302;42.624;23.334;2023-02-15T12:00:23;21.10;;;15.40;;
12474;SDS011;6302;42.624;23.334;2023-02-15T12:03:02;20.27;;;15.50;;
12474;SDS011;6302;42.624;23.334;2023-02-15T12:05:35;20.47;;;15.03;;
12474;SDS011;6302;42.624;23.334;2023-02-15T12:08:09;22.77;;;15.87;;
12474;SDS011;6302;42.624;23.334;2023-02-15T12:10:42;23.60;;;16.10;;
12474;SDS011;6302;42.624;23.334;2023-02-15T12:13:19;21.53;;;15.27;;
12474;SDS011;6302;42.624;23.334;2023-02-15T12:15:47;23.40;;;15.97;;
12474;SDS011;6302;42.624;23.334;2023-02-15T12:18:21;21.23;;;15.67;;
12474;SDS011;6302;42.624;23.334;2023-02-15T12:21:05;21.07;;;15.47;;
12474;SDS011;6302;42.624;23.334;2023-02-15T12:23:34;22.90;;;16.37;;
12474;SDS011;6302;42.624;23.334;2023-02-15T12:26:06;24.07;;;16.40;;
12474;SDS011;6302;42.624;23.334;2023-02-15T12:28:33;22.00;;;15.87;;
12474;SDS011;6302;42.624;23.334;2023-02-15T12:31:03;23.40;;;16.47;;
12474;SDS011;6302;42.624;23.334;2023-02-15T12:33:38;22.23;;;16.03;;
12474;SDS011;6302;42.624;23.334;2023-02-15T12:36:11;20.10;;;14.73;;
12474;SDS011;6302;42.624;23.334;2023-02-15T12:38:41;22.80;;;16.90;;
12474;SDS011;6302;42.624;23.334;2023-02-15T12:41:21;24.00;;;16.90;;
12474;SDS011;6302;42.624;23.334;2023-02-15T12:44:02;22.90;;;15.63;;
12474;SDS011;6302;42.624;23.334;2023-02-15T12:46:31;19.50;;;15.63;;
12474;SDS011;6302;42.624;23.334;2023-02-15T12:49:06;27.47;;;17.20;;
12474;SDS011;6302;42.624;23.334;2023-02-15T12:51:43;21.93;;;16.93;;
12474;SDS011;6302;42.624;23.334;2023-02-15T12:54:25;19.80;;;15.57;;
12474;SDS011;6302;42.624;23.334;2023-02-15T12:56:56;26.27;;;16.37;;
12474;SDS011;6302;42.624;23.334;2023-02-15T12:59:23;21.97;;;15.70;;
12474;SDS011;6302;42.624;23.334;2023-02-15T13:01:51;20.80;;;16.53;;
12474;SDS011;6302;42.624;23.334;2023-02-15T13:04:23;23.47;;;16.73;;
12474;SDS011;6302;42.624;23.334;2023-02-15T13:06:52;21.90;;;15.73;;
12474;SDS011;6302;42.624;23.334;2023-02-15T13:09:23;24.93;;;17.47;;
12474;SDS011;6302;42.624;23.334;2023-02-15T13:12:08;26.47;;;17.93;;
12474;SDS011;6302;42.624;23.334;2023-02-15T13:14:41;22.93;;;16.93;;
12474;SDS011;6302;42.624;23.334;2023-02-15T13:17:10;23.23;;;16.27;;
12474;SDS011;6302;42.624;23.334;2023-02-15T13:19:42;22.37;;;16.60;;
12474;SDS011;6302;42.624;23.334;2023-02-15T13:22:12;21.40;;;15.80;;
12474;SDS011;6302;42.624;23.334;2023-02-15T13:24:43;24.00;;;16.30;;
12474;SDS011;6302;42.624;23.334;2023-02-15T13:27:13;23.53;;;15.73;;
12474;SDS011;6302;42.624;23.334;2023-02-15T13:29:42;25.00;;;17.17;;
12474;SDS011;6302;42.624;23.334;2023-02-15T13:32:12;24.67;;;16.80;;
12474;SDS011;6302;42.624;23.334;2023-02-15T13:34:51;26.83;;;18.33;;
12474;SDS011;6302;42.624;23.334;2023-02-15T13:37:26;31.80;;;19.90;;
12474;SDS011;6302;42.624;23.334;2023-02-15T13:40:04;23.33;;;16.73;;
12474;SDS011;6302;42.624;23.334;2023-02-15T13:42:37;29.87;;;20.70;;
12474;SDS011;6302;42.624;23.334;2023-02-15T13:45:09;24.07;;;17.00;;
12474;SDS011;6302;42.624;23.334;2023-02-15T13:47:50;26.33;;;17.87;;
12474;SDS011;6302;42.624;23.334;2023-02-15T13:50:30;28.17;;;18.77;;
12474;SDS011;6302;42.624;23.334;2023-02-15T13:53:13;38.33;;;21.03;;
12474;SDS011;6302;42.624;23.334;2023-02-15T13:55:50;33.37;;;19.07;;
12474;SDS011;6302;42.624;23.334;2023-02-15T13:58:26;27.40;;;18.73;;
12474;SDS011;6302;42.624;23.334;2023-02-15T14:01:08;21.90;;;16.93;;
12474;SDS011;6302;42.624;23.334;2023-02-15T14:09:33;31.20;;;20.13;;
12474;SDS011;6302;42.624;23.334;2023-02-15T14:12:19;27.87;;;18.60;;
12474;SDS011;6302;42.624;23.334;2023-02-15T14:15:00;26.30;;;18.43;;
12474;SDS011;6302;42.624;23.334;2023-02-15T14:17:43;29.70;;;18.23;;
12474;SDS011;6302;42.624;23.334;2023-02-15T14:20:18;29.20;;;18.00;;
12474;SDS011;6302;42.624;23.334;2023-02-15T14:22:49;27.53;;;18.33;;
12474;SDS011;6302;42.624;23.334;2023-02-15T14:25:27;36.23;;;22.10;;
12474;SDS011;6302;42.624;23.334;2023-02-15T14:28:01;26.60;;;17.43;;
12474;SDS011;6302;42.624;23.334;2023-02-15T14:30:36;23.77;;;17.50;;
12474;SDS011;6302;42.624;23.334;2023-02-15T14:33:05;34.73;;;21.57;;
12474;SDS011;6302;42.624;23.334;2023-02-15T14:35:34;31.80;;;19.40;;
12474;SDS011;6302;42.624;23.334;2023-02-15T14:38:04;23.67;;;17.27;;
12474;SDS011;6302;42.624;23.334;2023-02-15T14:40:40;29.93;;;18.87;;
12474;SDS011;6302;42.624;23.334;2023-02-15T14:43:31;27.60;;;18.97;;
12474;SDS011;6302;42.624;23.334;2023-02-15T14:46:08;26.97;;;19.73;;
12474;SDS011;6302;42.624;23.334;2023-02-15T14:48:44;30.70;;;20.23;;
12474;SDS011;6302;42.624;23.334;2023-02-15T14:54:52;33.43;;;22.90;;
12474;SDS011;6302;42.624;23.334;2023-02-15T14:57:24;40.63;;;24.93;;
12474;SDS011;6302;42.624;23.334;2023-02-15T14:59:56;42.13;;;25.03;;
12474;SDS011;6302;42.624;23.334;2023-02-15T15:02:29;54.77;;;29.77;;
12474;SDS011;6302;42.624;23.334;2023-02-15T15:05:11;66.73;;;35.60;;